sensor_id;sensor_type;location;lat;lon;timestamp;pressure;altitude;pressure_sealevel;temperature;humidity
65897;BME280;52677;50.898;10.854;2022-07-12T00:01:28;99335.81;;;15.13;94.18
65897;BME280;52677;50.898;10.854;2022-07-12T00:03:28;99334.59;;;15.07;94.61
65897;BME280;52677;50.898;10.854;2022-07-12T00:05:29;99334.59;;;15.07;94.26
65897;BME280;52677;50.898;10.854;2022-07-12T00:07:29;99340.13;;;15.03;94.55
65897;BME280;52677;50.898;10.854;2022-07-12T00:09:29;99341.31;;;14.99;94.50
65897;BME280;52677;50.898;10.854;2022-07-12T00:11:30;99338.47;;;14.95;94.47
65897;BME280;52677;50.898;10.854;2022-07-12T00:13:31;99349.22;;;14.93;94.85
65897;BME280;52677;50.898;10.854;2022-07-12T00:15:31;99337.22;;;14.89;94.89
65897;BME280;52677;50.898;10.854;2022-07-12T00:17:31;99338.00;;;14.86;94.32
65897;BME280;52677;50.898;10.854;2022-07-12T00:19:32;99335.56;;;14.81;94.83
65897;BME280;52677;50.898;10.854;2022-07-12T00:21:32;99342.72;;;14.78;95.05
65897;BME280;52677;50.898;10.854;2022-07-12T00:23:34;99350.28;;;14.78;95.27
65897;BME280;52677;50.898;10.854;2022-07-12T00:25:34;99345.91;;;14.77;95.38
65897;BME280;52677;50.898;10.854;2022-07-12T00:27:34;99345.03;;;14.73;95.85
65897;BME280;52677;50.898;10.854;2022-07-12T00:29:35;99343.44;;;14.72;95.29
65897;BME280;52677;50.898;10.854;2022-07-12T00:31:36;99346.22;;;14.72;95.30
65897;BME280;52677;50.898;10.854;2022-07-12T00:33:36;99340.25;;;14.70;94.68
65897;BME280;52677;50.898;10.854;2022-07-12T00:35:37;99343.03;;;14.66;94.96
65897;BME280;52677;50.898;10.854;2022-07-12T00:37:37;99349.78;;;14.65;93.74
65897;BME280;52677;50.898;10.854;2022-07-12T00:39:37;99348.16;;;14.64;93.92
65897;BME280;52677;50.898;10.854;2022-07-12T00:41:38;99335.78;;;14.58;95.29
65897;BME280;52677;50.898;10.854;2022-07-12T00:43:38;99340.13;;;14.55;95.44
65897;BME280;52677;50.898;10.854;2022-07-12T00:45:39;99338.88;;;14.49;95.66
65897;BME280;52677;50.898;10.854;2022-07-12T00:47:46;99344.03;;;14.47;96.52
65897;BME280;52677;50.898;10.854;2022-07-12T00:49:47;99345.22;;;14.46;97.77
65897;BME280;52677;50.898;10.854;2022-07-12T00:51:47;99341.09;;;14.37;99.48
65897;BME280;52677;50.898;10.854;2022-07-12T00:53:50;99336.25;;;14.30;100.00
65897;BME280;52677;50.898;10.854;2022-07-12T00:55:56;99336.63;;;14.25;99.42
65897;BME280;52677;50.898;10.854;2022-07-12T00:57:56;99331.44;;;14.23;98.40
65897;BME280;52677;50.898;10.854;2022-07-12T00:59:56;99342.53;;;14.20;98.46
65897;BME280;52677;50.898;10.854;2022-07-12T01:01:57;99343.75;;;14.22;96.87
65897;BME280;52677;50.898;10.854;2022-07-12T01:03:57;99338.16;;;14.19;97.19
65897;BME280;52677;50.898;10.854;2022-07-12T01:05:57;99338.53;;;14.17;96.70
65897;BME280;52677;50.898;10.854;2022-07-12T01:07:58;99334.94;;;14.17;96.19
65897;BME280;52677;50.898;10.854;2022-07-12T01:10:00;99334.16;;;14.16;95.92
65897;BME280;52677;50.898;10.854;2022-07-12T01:12:01;99328.50;;;14.09;96.83
65897;BME280;52677;50.898;10.854;2022-07-12T01:14:01;99334.41;;;14.04;97.24
65897;BME280;52677;50.898;10.854;2022-07-12T01:16:03;99335.56;;;13.99;97.00
65897;BME280;52677;50.898;10.854;2022-07-12T01:18:04;99334.28;;;13.93;98.06
65897;BME280;52677;50.898;10.854;2022-07-12T01:20:05;99340.19;;;13.88;99.72
65897;BME280;52677;50.898;10.854;2022-07-12T01:22:10;99336.56;;;13.84;99.31
65897;BME280;52677;50.898;10.854;2022-07-12T01:24:11;99338.94;;;13.82;100.00
65897;BME280;52677;50.898;10.854;2022-07-12T01:26:11;99334.00;;;13.72;100.00
65897;BME280;52677;50.898;10.854;2022-07-12T01:28:12;99335.59;;;13.69;100.00
65897;BME280;52677;50.898;10.854;2022-07-12T01:30:12;99332.38;;;13.67;100.00
65897;BME280;52677;50.898;10.854;2022-07-12T01:32:12;99333.50;;;13.63;100.00
65897;BME280;52677;50.898;10.854;2022-07-12T01:34:25;99332.69;;;13.59;100.00
65897;BME280;52677;50.898;10.854;2022-07-12T01:36:25;99325.44;;;13.54;100.00
65897;BME280;52677;50.898;10.854;2022-07-12T01:38:26;99325.53;;;13.58;100.00
65897;BME280;52677;50.898;10.854;2022-07-12T01:40:26;99325.44;;;13.54;100.00
65897;BME280;52677;50.898;10.854;2022-07-12T01:42:28;99332.19;;;13.53;100.00
65897;BME280;52677;50.898;10.854;2022-07-12T01:44:29;99337.38;;;13.55;100.00
65897;BME280;52677;50.898;10.854;2022-07-12T01:46:29;99326.59;;;13.49;100.00
65897;BME280;52677;50.898;10.854;2022-07-12T01:48:29;99322.97;;;13.45;100.00
65897;BME280;52677;50.898;10.854;2022-07-12T01:50:30;99328.00;;;13.36;100.00
65897;BME280;52677;50.898;10.854;2022-07-12T01:52:30;99327.50;;;13.31;100.00
65897;BME280;52677;50.898;10.854;2022-07-12T01:54:31;99334.59;;;13.25;100.00
65897;BME280;52677;50.898;10.854;2022-07-12T01:56:33;99330.38;;;13.11;100.00
65897;BME280;52677;50.898;10.854;2022-07-12T01:58:35;99333.13;;;13.08;100.00
65897;BME280;52677;50.898;10.854;2022-07-12T02:00:35;99333.94;;;13.08;100.00
65897;BME280;52677;50.898;10.854;2022-07-12T02:02:36;99336.63;;;13.05;100.00
65897;BME280;52677;50.898;10.854;2022-07-12T02:04:38;99339.41;;;13.05;100.00
65897;BME280;52677;50.898;10.854;2022-07-12T02:06:39;99342.94;;;13.02;100.00
65897;BME280;52677;50.898;10.854;2022-07-12T02:08:41;99344.06;;;12.97;100.00
65897;BME280;52677;50.898;10.854;2022-07-12T02:10:43;99339.75;;;13.00;100.00
65897;BME280;52677;50.898;10.854;2022-07-12T02:12:43;99339.75;;;13.00;100.00
65897;BME280;52677;50.898;10.854;2022-07-12T02:14:44;99336.53;;;12.98;100.00
65897;BME280;52677;50.898;10.854;2022-07-12T02:16:44;99329.91;;;13.06;100.00
65897;BME280;52677;50.898;10.854;2022-07-12T02:18:44;99335.00;;;13.00;100.00
65897;BME280;52677;50.898;10.854;2022-07-12T02:20:45;99336.97;;;13.00;100.00
65897;BME280;52677;50.898;10.854;2022-07-12T02:22:45;99327.66;;;12.88;100.00
65897;BME280;52677;50.898;10.854;2022-07-12T02:24:46;99337.91;;;12.84;100.00
65897;BME280;52677;50.898;10.854;2022-07-12T02:26:46;99337.72;;;12.74;100.00
65897;BME280;52677;50.898;10.854;2022-07-12T02:28:46;99330.94;;;12.71;100.00
65897;BME280;52677;50.898;10.854;2022-07-12T02:30:47;99336.50;;;12.71;100.00
65897;BME280;52677;50.898;10.854;2022-07-12T02:32:47;99335.66;;;12.67;100.00
65897;BME280;52677;50.898;10.854;2022-07-12T02:34:47;99335.53;;;12.60;100.00
65897;BME280;52677;50.898;10.854;2022-07-12T02:36:48;99333.06;;;12.55;100.00
65897;BME280;52677;50.898;10.854;2022-07-12T02:38:48;99339.34;;;12.52;100.00
65897;BME280;52677;50.898;10.854;2022-07-12T02:40:49;99340.53;;;12.51;100.00
65897;BME280;52677;50.898;10.854;2022-07-12T02:42:55;99336.44;;;12.45;100.00
65897;BME280;52677;50.898;10.854;2022-07-12T02:44:55;99334.78;;;12.40;100.00
65897;BME280;52677;50.898;10.854;2022-07-12T02:46:55;99334.47;;;12.45;100.00
65897;BME280;52677;50.898;10.854;2022-07-12T02:48:56;99336.38;;;12.41;100.00
65897;BME280;52677;50.898;10.854;2022-07-12T02:50:56;99332.44;;;12.42;100.00
65897;BME280;52677;50.898;10.854;2022-07-12T02:52:57;99328.78;;;12.38;100.00
65897;BME280;52677;50.898;10.854;2022-07-12T02:54:57;99335.53;;;12.37;100.00
65897;BME280;52677;50.898;10.854;2022-07-12T02:56:57;99337.13;;;12.38;100.00
65897;BME280;52677;50.898;10.854;2022-07-12T02:58:58;99341.88;;;12.37;100.00
65897;BME280;52677;50.898;10.854;2022-07-12T03:00:58;99335.09;;;12.35;100.00
65897;BME280;52677;50.898;10.854;2022-07-12T03:02:58;99337.50;;;12.36;100.00
65897;BME280;52677;50.898;10.854;2022-07-12T03:04:59;99338.66;;;12.35;100.00
65897;BME280;52677;50.898;10.854;2022-07-12T03:06:59;99335.09;;;12.35;100.00
65897;BME280;52677;50.898;10.854;2022-07-12T03:08:59;99341.81;;;12.34;100.00
65897;BME280;52677;50.898;10.854;2022-07-12T03:11:00;99344.13;;;12.32;100.00
65897;BME280;52677;50.898;10.854;2022-07-12T03:13:01;99343.28;;;12.28;100.00
65897;BME280;52677;50.898;10.854;2022-07-12T03:15:02;99348.09;;;12.31;100.00
65897;BME280;52677;50.898;10.854;2022-07-12T03:17:03;99345.81;;;12.36;100.00
65897;BME280;52677;50.898;10.854;2022-07-12T03:19:03;99352.13;;;12.33;100.00
65897;BME280;52677;50.898;10.854;2022-07-12T03:21:04;99354.91;;;12.33;100.00
65897;BME280;52677;50.898;10.854;2022-07-12T03:23:04;99355.97;;;12.29;100.00
65897;BME280;52677;50.898;10.854;2022-07-12T03:25:05;99359.94;;;12.28;100.00
65897;BME280;52677;50.898;10.854;2022-07-12T03:27:06;99361.47;;;12.25;100.00
65897;BME280;52677;50.898;10.854;2022-07-12T03:29:07;99371.09;;;12.31;100.00
65897;BME280;52677;50.898;10.854;2022-07-12T03:31:08;99362.75;;;12.31;100.00
65897;BME280;52677;50.898;10.854;2022-07-12T03:33:08;99368.75;;;12.33;100.00
65897;BME280;52677;50.898;10.854;2022-07-12T03:35:08;99370.00;;;12.36;100.00
65897;BME280;52677;50.898;10.854;2022-07-12T03:37:09;99370.41;;;12.38;100.00
65897;BME280;52677;50.898;10.854;2022-07-12T03:39:09;99365.00;;;12.45;100.00
65897;BME280;52677;50.898;10.854;2022-07-12T03:41:09;99370.97;;;12.47;100.00
65897;BME280;52677;50.898;10.854;2022-07-12T03:43:10;99372.25;;;12.50;100.00
65897;BME280;52677;50.898;10.854;2022-07-12T03:45:11;99374.69;;;12.55;100.00
65897;BME280;52677;50.898;10.854;2022-07-12T03:47:11;99373.09;;;12.54;100.00
65897;BME280;52677;50.898;10.854;2022-07-12T03:49:12;99377.84;;;12.53;100.00
65897;BME280;52677;50.898;10.854;2022-07-12T03:51:12;99394.53;;;12.57;100.00
65897;BME280;52677;50.898;10.854;2022-07-12T03:53:12;99390.63;;;12.58;100.00
65897;BME280;52677;50.898;10.854;2022-07-12T03:55:13;99395.81;;;12.59;100.00
65897;BME280;52677;50.898;10.854;2022-07-12T03:57:14;99408.13;;;12.62;100.00
65897;BME280;52677;50.898;10.854;2022-07-12T03:59:15;99406.59;;;12.64;100.00
65897;BME280;52677;50.898;10.854;2022-07-12T04:01:15;99404.25;;;12.67;100.00
65897;BME280;52677;50.898;10.854;2022-07-12T04:03:15;99400.72;;;12.70;100.00
65897;BME280;52677;50.898;10.854;2022-07-12T04:05:16;99411.53;;;12.75;100.00
65897;BME280;52677;50.898;10.854;2022-07-12T04:07:16;99404.34;;;12.74;100.00
65897;BME280;52677;50.898;10.854;2022-07-12T04:09:16;99408.78;;;12.75;100.00
65897;BME280;52677;50.898;10.854;2022-07-12T04:11:17;99409.88;;;12.70;100.00
65897;BME280;52677;50.898;10.854;2022-07-12T04:13:17;99403.13;;;12.71;100.00
65897;BME280;52677;50.898;10.854;2022-07-12T04:15:17;99406.00;;;12.75;100.00
65897;BME280;52677;50.898;10.854;2022-07-12T04:17:18;99412.34;;;12.75;100.00
65897;BME280;52677;50.898;10.854;2022-07-12T04:19:19;99406.84;;;12.79;100.00
65897;BME280;52677;50.898;10.854;2022-07-12T04:21:19;99405.78;;;12.87;100.00
65897;BME280;52677;50.898;10.854;2022-07-12T04:23:20;99399.94;;;12.92;100.00
65897;BME280;52677;50.898;10.854;2022-07-12T04:25:20;99405.53;;;12.96;100.00
65897;BME280;52677;50.898;10.854;2022-07-12T04:27:21;99404.78;;;12.99;100.00
65897;BME280;52677;50.898;10.854;2022-07-12T04:29:21;99422.28;;;12.99;100.00
65897;BME280;52677;50.898;10.854;2022-07-12T04:31:22;99411.97;;;13.00;100.00
65897;BME280;52677;50.898;10.854;2022-07-12T04:33:23;99409.75;;;13.09;100.00
65897;BME280;52677;50.898;10.854;2022-07-12T04:35:23;99407.38;;;13.11;100.00
65897;BME280;52677;50.898;10.854;2022-07-12T04:37:24;99409.47;;;13.17;100.00
65897;BME280;52677;50.898;10.854;2022-07-12T04:39:24;99413.13;;;13.21;100.00
65897;BME280;52677;50.898;10.854;2022-07-12T04:41:24;99418.44;;;13.30;100.00
65897;BME280;52677;50.898;10.854;2022-07-12T04:43:25;99416.19;;;13.39;100.00
65897;BME280;52677;50.898;10.854;2022-07-12T04:45:25;99419.16;;;13.50;100.00
65897;BME280;52677;50.898;10.854;2022-07-12T04:47:26;99422.44;;;13.59;100.00
65897;BME280;52677;50.898;10.854;2022-07-12T04:49:26;99417.41;;;13.68;100.00
65897;BME280;52677;50.898;10.854;2022-07-12T04:51:27;99418.69;;;13.74;100.00
65897;BME280;52677;50.898;10.854;2022-07-12T04:53:27;99411.25;;;13.82;100.00
65897;BME280;52677;50.898;10.854;2022-07-12T04:55:28;99411.75;;;13.91;100.00
65897;BME280;52677;50.898;10.854;2022-07-12T04:57:29;99413.50;;;14.03;100.00
65897;BME280;52677;50.898;10.854;2022-07-12T04:59:29;99410.84;;;14.14;100.00
65897;BME280;52677;50.898;10.854;2022-07-12T05:01:29;99419.28;;;14.21;100.00
65897;BME280;52677;50.898;10.854;2022-07-12T05:03:30;99407.03;;;14.29;100.00
65897;BME280;52677;50.898;10.854;2022-07-12T05:05:30;99408.72;;;14.37;100.00
65897;BME280;52677;50.898;10.854;2022-07-12T05:07:31;99409.59;;;14.45;100.00
65897;BME280;52677;50.898;10.854;2022-07-12T05:09:31;99414.47;;;14.51;100.00
65897;BME280;52677;50.898;10.854;2022-07-12T05:11:32;99415.38;;;14.59;100.00
65897;BME280;52677;50.898;10.854;2022-07-12T05:13:33;99409.41;;;14.60;100.00
65897;BME280;52677;50.898;10.854;2022-07-12T05:15:33;99421.81;;;14.67;100.00
65897;BME280;52677;50.898;10.854;2022-07-12T05:17:34;99417.53;;;14.76;100.00
65897;BME280;52677;50.898;10.854;2022-07-12T05:19:34;99420.41;;;14.87;100.00
65897;BME280;52677;50.898;10.854;2022-07-12T05:21:35;99425.25;;;14.97;100.00
65897;BME280;52677;50.898;10.854;2022-07-12T05:23:35;99427.72;;;15.06;100.00
65897;BME280;52677;50.898;10.854;2022-07-12T05:25:35;99429.28;;;15.00;100.00
65897;BME280;52677;50.898;10.854;2022-07-12T05:27:37;99435.25;;;15.02;100.00
65897;BME280;52677;50.898;10.854;2022-07-12T05:29:37;99426.88;;;14.98;100.00
65897;BME280;52677;50.898;10.854;2022-07-12T05:31:37;99432.81;;;14.93;99.12
65897;BME280;52677;50.898;10.854;2022-07-12T05:33:38;99429.53;;;14.84;98.58
65897;BME280;52677;50.898;10.854;2022-07-12T05:35:38;99431.13;;;14.81;98.98
65897;BME280;52677;50.898;10.854;2022-07-12T05:37:39;99441.94;;;14.90;97.29
65897;BME280;52677;50.898;10.854;2022-07-12T05:39:39;99440.59;;;14.77;98.21
65897;BME280;52677;50.898;10.854;2022-07-12T05:41:39;99442.50;;;14.69;98.90
65897;BME280;52677;50.898;10.854;2022-07-12T05:43:40;99447.25;;;14.65;99.85
65897;BME280;52677;50.898;10.854;2022-07-12T05:45:41;99444.78;;;14.56;100.00
65897;BME280;52677;50.898;10.854;2022-07-12T05:47:42;99451.16;;;14.57;100.00
65897;BME280;52677;50.898;10.854;2022-07-12T05:49:42;99449.50;;;14.52;100.00
65897;BME280;52677;50.898;10.854;2022-07-12T05:51:43;99445.88;;;14.48;100.00
65897;BME280;52677;50.898;10.854;2022-07-12T05:54:02;99454.38;;;14.63;100.00
65897;BME280;52677;50.898;10.854;2022-07-12T05:56:02;99456.13;;;14.78;100.00
65897;BME280;52677;50.898;10.854;2022-07-12T05:58:02;99456.28;;;14.92;100.00
65897;BME280;52677;50.898;10.854;2022-07-12T06:00:04;99457.63;;;15.09;98.66
65897;BME280;52677;50.898;10.854;2022-07-12T06:02:04;99457.69;;;15.16;96.85
65897;BME280;52677;50.898;10.854;2022-07-12T06:04:05;99467.75;;;15.28;95.05
65897;BME280;52677;50.898;10.854;2022-07-12T06:06:06;99471.41;;;15.39;95.45
65897;BME280;52677;50.898;10.854;2022-07-12T06:08:06;99474.63;;;15.41;93.75
65897;BME280;52677;50.898;10.854;2022-07-12T06:10:07;99473.91;;;15.51;93.87
65897;BME280;52677;50.898;10.854;2022-07-12T06:12:07;99473.97;;;15.58;93.01
65897;BME280;52677;50.898;10.854;2022-07-12T06:14:08;99475.19;;;15.61;92.69
65897;BME280;52677;50.898;10.854;2022-07-12T06:16:08;99462.94;;;15.72;93.46
65897;BME280;52677;50.898;10.854;2022-07-12T06:18:10;99465.78;;;15.83;92.33
65897;BME280;52677;50.898;10.854;2022-07-12T06:20:11;99461.00;;;15.87;91.46
65897;BME280;52677;50.898;10.854;2022-07-12T06:22:11;99464.25;;;15.93;90.89
65897;BME280;52677;50.898;10.854;2022-07-12T06:24:12;99464.25;;;15.93;89.80
65897;BME280;52677;50.898;10.854;2022-07-12T06:26:12;99471.88;;;16.03;88.27
65897;BME280;52677;50.898;10.854;2022-07-12T06:28:12;99469.47;;;16.05;88.79
65897;BME280;52677;50.898;10.854;2022-07-12T06:30:15;99467.88;;;16.04;88.45
65897;BME280;52677;50.898;10.854;2022-07-12T06:32:16;99461.09;;;15.98;88.27
65897;BME280;52677;50.898;10.854;2022-07-12T06:34:16;99475.91;;;16.09;88.73
65897;BME280;52677;50.898;10.854;2022-07-12T06:36:17;99471.16;;;16.20;88.00
65897;BME280;52677;50.898;10.854;2022-07-12T06:38:17;99473.22;;;16.31;87.77
65897;BME280;52677;50.898;10.854;2022-07-12T06:40:17;99473.22;;;16.34;87.34
65897;BME280;52677;50.898;10.854;2022-07-12T06:42:18;99472.06;;;16.46;85.03
65897;BME280;52677;50.898;10.854;2022-07-12T06:44:18;99469.69;;;16.48;84.73
65897;BME280;52677;50.898;10.854;2022-07-12T06:46:19;99462.50;;;16.50;83.99
65897;BME280;52677;50.898;10.854;2022-07-12T06:48:19;99467.69;;;16.48;82.65
65897;BME280;52677;50.898;10.854;2022-07-12T06:50:20;99468.88;;;16.40;81.08
65897;BME280;52677;50.898;10.854;2022-07-12T06:52:20;99477.69;;;16.56;81.29
65897;BME280;52677;50.898;10.854;2022-07-12T06:54:20;99479.28;;;16.50;79.07
65897;BME280;52677;50.898;10.854;2022-07-12T06:56:21;99474.09;;;16.52;79.16
65897;BME280;52677;50.898;10.854;2022-07-12T06:58:21;99482.88;;;16.47;79.24
65897;BME280;52677;50.898;10.854;2022-07-12T07:00:23;99487.63;;;16.43;80.05
65897;BME280;52677;50.898;10.854;2022-07-12T07:02:23;99489.63;;;16.46;80.07
65897;BME280;52677;50.898;10.854;2022-07-12T07:04:24;99481.25;;;16.53;79.87
65897;BME280;52677;50.898;10.854;2022-07-12T07:06:25;99477.72;;;16.64;79.10
65897;BME280;52677;50.898;10.854;2022-07-12T07:08:25;99473.38;;;16.77;78.30
65897;BME280;52677;50.898;10.854;2022-07-12T07:10:25;99479.44;;;16.97;77.57
65897;BME280;52677;50.898;10.854;2022-07-12T07:12:26;99472.25;;;17.21;77.01
65897;BME280;52677;50.898;10.854;2022-07-12T07:14:26;99485.84;;;17.44;76.62
65897;BME280;52677;50.898;10.854;2022-07-12T07:16:27;99487.84;;;17.61;75.32
65897;BME280;52677;50.898;10.854;2022-07-12T07:18:27;99484.63;;;17.69;74.30
65897;BME280;52677;50.898;10.854;2022-07-12T07:20:28;99491.84;;;17.78;72.52
65897;BME280;52677;50.898;10.854;2022-07-12T07:22:28;99492.25;;;17.80;74.66
65897;BME280;52677;50.898;10.854;2022-07-12T07:24:28;99488.63;;;17.93;73.63
65897;BME280;52677;50.898;10.854;2022-07-12T07:26:29;99481.41;;;18.03;72.40
65897;BME280;52677;50.898;10.854;2022-07-12T07:28:29;99480.19;;;18.08;71.83
65897;BME280;52677;50.898;10.854;2022-07-12T07:30:30;99482.91;;;18.33;72.15
65897;BME280;52677;50.898;10.854;2022-07-12T07:32:48;99491.69;;;18.42;70.44
65897;BME280;52677;50.898;10.854;2022-07-12T07:34:50;99486.50;;;18.40;69.78
65897;BME280;52677;50.898;10.854;2022-07-12T07:36:51;99474.03;;;18.45;69.83
65897;BME280;52677;50.898;10.854;2022-07-12T07:38:51;99481.25;;;18.49;71.00
65897;BME280;52677;50.898;10.854;2022-07-12T07:40:52;99464.81;;;18.51;70.55
65897;BME280;52677;50.898;10.854;2022-07-12T07:42:52;99467.59;;;18.66;70.27
65897;BME280;52677;50.898;10.854;2022-07-12T07:44:52;99470.72;;;18.78;69.27
65897;BME280;52677;50.898;10.854;2022-07-12T07:46:53;99463.94;;;18.72;68.68
65897;BME280;52677;50.898;10.854;2022-07-12T07:48:53;99469.06;;;18.85;68.50
65897;BME280;52677;50.898;10.854;2022-07-12T07:50:53;99463.78;;;18.94;67.67
65897;BME280;52677;50.898;10.854;2022-07-12T07:52:54;99460.59;;;18.95;67.78
65897;BME280;52677;50.898;10.854;2022-07-12T07:54:54;99475.47;;;18.89;67.82
65897;BME280;52677;50.898;10.854;2022-07-12T07:56:54;99481.50;;;18.84;68.50
65897;BME280;52677;50.898;10.854;2022-07-12T07:58:55;99467.97;;;18.71;68.32
65897;BME280;52677;50.898;10.854;2022-07-12T08:00:55;99471.22;;;18.56;68.35
65897;BME280;52677;50.898;10.854;2022-07-12T08:02:56;99470.47;;;18.41;68.62
65897;BME280;52677;50.898;10.854;2022-07-12T08:04:56;99469.69;;;18.33;68.20
65897;BME280;52677;50.898;10.854;2022-07-12T08:06:57;99470.97;;;18.21;68.26
65897;BME280;52677;50.898;10.854;2022-07-12T08:08:58;99472.16;;;18.17;67.40
65897;BME280;52677;50.898;10.854;2022-07-12T08:10:58;99473.38;;;18.09;68.70
65897;BME280;52677;50.898;10.854;2022-07-12T08:12:59;99475.00;;;17.95;68.89
65897;BME280;52677;50.898;10.854;2022-07-12T08:15:00;99466.25;;;17.90;69.88
65897;BME280;52677;50.898;10.854;2022-07-12T08:17:00;99459.03;;;17.92;69.05
65897;BME280;52677;50.898;10.854;2022-07-12T08:19:01;99469.03;;;17.86;69.64
65897;BME280;52677;50.898;10.854;2022-07-12T08:21:01;99469.44;;;17.78;71.01
65897;BME280;52677;50.898;10.854;2022-07-12T08:23:02;99475.84;;;17.78;71.23
65897;BME280;52677;50.898;10.854;2022-07-12T08:25:03;99470.66;;;17.77;70.38
65897;BME280;52677;50.898;10.854;2022-07-12T08:27:03;99477.06;;;17.74;69.94
65897;BME280;52677;50.898;10.854;2022-07-12T08:29:04;99475.84;;;17.85;71.90
65897;BME280;52677;50.898;10.854;2022-07-12T08:31:05;99467.84;;;17.91;70.18
65897;BME280;52677;50.898;10.854;2022-07-12T08:33:05;99461.84;;;17.96;70.82
65897;BME280;52677;50.898;10.854;2022-07-12T08:35:06;99463.41;;;18.04;71.28
65897;BME280;52677;50.898;10.854;2022-07-12T08:37:06;99461.38;;;18.12;68.44
65897;BME280;52677;50.898;10.854;2022-07-12T08:39:07;99449.69;;;18.35;68.40
65897;BME280;52677;50.898;10.854;2022-07-12T08:41:07;99449.56;;;18.60;67.63
65897;BME280;52677;50.898;10.854;2022-07-12T08:43:09;99450.34;;;18.71;66.58
65897;BME280;52677;50.898;10.854;2022-07-12T08:45:10;99446.19;;;18.93;65.79
65897;BME280;52677;50.898;10.854;2022-07-12T08:47:10;99449.69;;;19.12;66.90
65897;BME280;52677;50.898;10.854;2022-07-12T08:49:11;99456.63;;;19.41;64.83
65897;BME280;52677;50.898;10.854;2022-07-12T08:51:13;99454.06;;;19.64;62.83
65897;BME280;52677;50.898;10.854;2022-07-12T08:53:13;99446.50;;;19.54;63.10
65897;BME280;52677;50.898;10.854;2022-07-12T08:55:22;99445.03;;;19.39;63.08
65897;BME280;52677;50.898;10.854;2022-07-12T08:57:30;99443.19;;;19.22;62.82
65897;BME280;52677;50.898;10.854;2022-07-12T08:59:30;99440.94;;;18.99;61.67
65897;BME280;52677;50.898;10.854;2022-07-12T09:01:50;99436.25;;;18.82;61.72
65897;BME280;52677;50.898;10.854;2022-07-12T09:04:09;99447.34;;;18.99;62.41
65897;BME280;52677;50.898;10.854;2022-07-12T09:06:10;99439.16;;;19.23;62.30
65897;BME280;52677;50.898;10.854;2022-07-12T09:08:11;99445.47;;;19.38;61.50
65897;BME280;52677;50.898;10.854;2022-07-12T09:10:12;99444.91;;;19.57;60.39
65897;BME280;52677;50.898;10.854;2022-07-12T09:12:22;99444.72;;;19.75;57.92
65897;BME280;52677;50.898;10.854;2022-07-12T09:14:23;99445.50;;;19.79;56.25
65897;BME280;52677;50.898;10.854;2022-07-12T09:16:25;99450.22;;;19.85;56.32
65897;BME280;52677;50.898;10.854;2022-07-12T09:18:25;99445.31;;;19.93;54.28
65897;BME280;52677;50.898;10.854;2022-07-12T09:20:33;99437.31;;;19.95;53.77
65897;BME280;52677;50.898;10.854;2022-07-12T09:22:34;99444.94;;;19.91;54.00
65897;BME280;52677;50.898;10.854;2022-07-12T09:24:34;99445.69;;;19.99;52.95
65897;BME280;52677;50.898;10.854;2022-07-12T09:26:34;99430.03;;;19.98;53.16
65897;BME280;52677;50.898;10.854;2022-07-12T09:28:35;99427.19;;;20.01;52.34
65897;BME280;52677;50.898;10.854;2022-07-12T09:30:46;99437.53;;;20.11;52.91
65897;BME280;52677;50.898;10.854;2022-07-12T09:35:12;99426.56;;;20.20;52.61
65897;BME280;52677;50.898;10.854;2022-07-12T09:37:39;99422.06;;;20.27;52.67
65897;BME280;52677;50.898;10.854;2022-07-12T09:39:40;99426.75;;;20.37;53.21
65897;BME280;52677;50.898;10.854;2022-07-12T09:41:42;99424.75;;;20.37;52.20
65897;BME280;52677;50.898;10.854;2022-07-12T09:43:43;99424.56;;;20.52;52.88
65897;BME280;52677;50.898;10.854;2022-07-12T09:45:46;99421.03;;;20.74;54.39
65897;BME280;52677;50.898;10.854;2022-07-12T09:47:48;99420.84;;;20.89;52.71
65897;BME280;52677;50.898;10.854;2022-07-12T09:49:49;99426.66;;;20.74;53.26
65897;BME280;52677;50.898;10.854;2022-07-12T09:51:55;99423.66;;;20.62;53.48
65897;BME280;52677;50.898;10.854;2022-07-12T09:53:57;99430.59;;;20.54;54.81
65897;BME280;52677;50.898;10.854;2022-07-12T09:56:05;99424.53;;;20.55;54.02
65897;BME280;52677;50.898;10.854;2022-07-12T09:58:07;99437.63;;;20.65;54.67
65897;BME280;52677;50.898;10.854;2022-07-12T10:00:09;99426.22;;;20.76;54.20
65897;BME280;52677;50.898;10.854;2022-07-12T10:02:14;99437.63;;;20.65;52.39
65897;BME280;52677;50.898;10.854;2022-07-12T10:04:20;99434.31;;;20.74;52.13
65897;BME280;52677;50.898;10.854;2022-07-12T10:06:27;99436.59;;;20.83;54.41
65897;BME280;52677;50.898;10.854;2022-07-12T10:08:29;99445.50;;;21.04;53.38
65897;BME280;52677;50.898;10.854;2022-07-12T10:10:30;99444.63;;;21.11;50.77
65897;BME280;52677;50.898;10.854;2022-07-12T10:12:30;99450.41;;;21.24;49.36
65897;BME280;52677;50.898;10.854;2022-07-12T10:14:31;99462.53;;;21.21;49.93
65897;BME280;52677;50.898;10.854;2022-07-12T10:16:34;99453.34;;;21.17;48.88
65897;BME280;52677;50.898;10.854;2022-07-12T10:18:35;99458.84;;;21.27;48.00
65897;BME280;52677;50.898;10.854;2022-07-12T10:20:41;99446.38;;;21.28;48.66
65897;BME280;52677;50.898;10.854;2022-07-12T10:22:42;99451.13;;;21.31;47.40
65897;BME280;52677;50.898;10.854;2022-07-12T10:26:44;99450.47;;;21.47;48.05
65897;BME280;52677;50.898;10.854;2022-07-12T10:29:01;99443.41;;;21.59;47.95
65897;BME280;52677;50.898;10.854;2022-07-12T10:31:04;99443.00;;;21.61;46.27
65897;BME280;52677;50.898;10.854;2022-07-12T10:33:20;99437.13;;;21.51;47.96
65897;BME280;52677;50.898;10.854;2022-07-12T10:35:22;99426.53;;;21.09;48.48